FFT2815 KPHL-KJAX
Flight info
| Callsign | FFT2815 |
|---|---|
| Flight time | 1h 49m |
| Altitude | 38000 |
| Route | OOD TEBEE HAYDO TRPOD Q409 SESUE ESENT LUNNI2 |
| Aircraft | A20N/M-SDE2E3FGHIRWXY/LB1 |
Departure
| Time | 2026-05-05 17:36 |
|---|---|
| Airport | Philadelphia International Airport (KPHL) |
Arrival
| Time | 2026-05-05 19:25 |
|---|---|
| Airport | Jacksonville International Airport (KJAX) |
| Time | Latitude | Longitude | Altitude | Speed | Heading |
|---|---|---|---|---|---|
| 2026-05-05 17:13 | 39.87833 | -75.23675 | 17 ft | 0 kts | 200° |
| 2026-05-05 17:26 | 39.87840 | -75.23672 | 17 ft | 2 kts | 200° |
| 2026-05-05 17:26 | 39.87852 | -75.23666 | 17 ft | 0 kts | 200° |
| 2026-05-05 17:27 | 39.87863 | -75.23662 | 17 ft | 2 kts | 182° |
| 2026-05-05 17:27 | 39.87878 | -75.23664 | 17 ft | 2 kts | 160° |
| 2026-05-05 17:27 | 39.87891 | -75.23673 | 17 ft | 2 kts | 137° |
| 2026-05-05 17:27 | 39.87900 | -75.23689 | 17 ft | 1 kts | 114° |
| 2026-05-05 17:28 | 39.87902 | -75.23697 | 17 ft | 1 kts | 106° |
| 2026-05-05 17:28 | 39.87903 | -75.23701 | 17 ft | 0 kts | 109° |
| 2026-05-05 17:28 | 39.87903 | -75.23700 | 17 ft | 0 kts | 109° |
| 2026-05-05 17:31 | 39.87897 | -75.23679 | 17 ft | 8 kts | 109° |
| 2026-05-05 17:32 | 39.87861 | -75.23546 | 17 ft | 18 kts | 105° |
| 2026-05-05 17:32 | 39.87861 | -75.23434 | 17 ft | 2 kts | 105° |
| 2026-05-05 17:32 | 39.87803 | -75.23403 | 17 ft | 17 kts | 165° |
| 2026-05-05 17:32 | 39.87650 | -75.23335 | 17 ft | 28 kts | 160° |
| 2026-05-05 17:33 | 39.87445 | -75.23235 | 17 ft | 33 kts | 159° |
| 2026-05-05 17:33 | 39.87247 | -75.23134 | 17 ft | 23 kts | 159° |
| 2026-05-05 17:33 | 39.87128 | -75.23141 | 17 ft | 15 kts | 235° |
| 2026-05-05 17:33 | 39.87062 | -75.23254 | 16 ft | 15 kts | 238° |
| 2026-05-05 17:34 | 39.87022 | -75.23392 | 16 ft | 11 kts | 251° |
| 2026-05-05 17:34 | 39.87007 | -75.23416 | 16 ft | 0 kts | 202° |
| 2026-05-05 17:34 | 39.87004 | -75.23418 | 16 ft | 3 kts | 201° |
| 2026-05-05 17:34 | 39.86910 | -75.23412 | 16 ft | 15 kts | 206° |
| 2026-05-05 17:35 | 39.86874 | -75.23534 | 17 ft | 15 kts | 264° |
| 2026-05-05 17:35 | 39.86840 | -75.23724 | 17 ft | 44 kts | 255° |
| 2026-05-05 17:35 | 39.86702 | -75.24416 | 20 ft | 110 kts | 255° |
| 2026-05-05 17:35 | 39.86468 | -75.25584 | 111 ft | 151 kts | 255° |
| 2026-05-05 17:36 | 39.86219 | -75.26955 | 617 ft | 155 kts | 254° |
| 2026-05-05 17:36 | 39.85832 | -75.28235 | 1233 ft | 155 kts | 232° |
| 2026-05-05 17:36 | 39.85038 | -75.29246 | 1678 ft | 169 kts | 221° |
| 2026-05-05 17:36 | 39.84071 | -75.30243 | 2008 ft | 187 kts | 219° |
| 2026-05-05 17:37 | 39.82994 | -75.31319 | 2369 ft | 203 kts | 218° |
| 2026-05-05 17:37 | 39.82220 | -75.32090 | 2571 ft | 218 kts | 218° |
| 2026-05-05 17:37 | 39.80382 | -75.33488 | 3140 ft | 244 kts | 193° |
| 2026-05-05 17:37 | 39.78643 | -75.33403 | 3796 ft | 257 kts | 174° |
| 2026-05-05 17:38 | 39.76883 | -75.32954 | 4639 ft | 260 kts | 173° |
| 2026-05-05 17:38 | 39.75120 | -75.32510 | 5491 ft | 260 kts | 175° |
| 2026-05-05 17:38 | 39.73362 | -75.32121 | 6308 ft | 262 kts | 176° |
| 2026-05-05 17:38 | 39.71553 | -75.31763 | 7131 ft | 265 kts | 178° |
| 2026-05-05 17:39 | 39.69723 | -75.31422 | 7957 ft | 267 kts | 179° |
| 2026-05-05 17:39 | 39.67889 | -75.31092 | 8788 ft | 269 kts | 180° |
| 2026-05-05 17:39 | 39.66056 | -75.30769 | 9573 ft | 271 kts | 181° |
| 2026-05-05 17:39 | 39.64195 | -75.30535 | 10376 ft | 270 kts | 186° |
| 2026-05-05 17:40 | 39.62318 | -75.30588 | 11101 ft | 270 kts | 193° |
| 2026-05-05 17:40 | 39.60424 | -75.30890 | 11625 ft | 281 kts | 195° |
| 2026-05-05 17:40 | 39.58446 | -75.31255 | 11992 ft | 297 kts | 194° |
| 2026-05-05 17:40 | 39.56360 | -75.31638 | 12555 ft | 306 kts | 194° |
| 2026-05-05 17:41 | 39.54257 | -75.32018 | 13281 ft | 309 kts | 194° |
| 2026-05-05 17:41 | 39.52104 | -75.32404 | 13966 ft | 313 kts | 194° |
| 2026-05-05 17:41 | 39.49951 | -75.32793 | 14612 ft | 319 kts | 194° |
| 2026-05-05 17:41 | 39.47778 | -75.33187 | 15206 ft | 324 kts | 194° |
| 2026-05-05 17:42 | 39.45509 | -75.33598 | 15820 ft | 329 kts | 194° |
| 2026-05-05 17:42 | 39.43253 | -75.34006 | 16421 ft | 334 kts | 194° |
| 2026-05-05 17:42 | 39.40914 | -75.34428 | 17020 ft | 340 kts | 194° |
| 2026-05-05 17:42 | 39.38583 | -75.34849 | 17576 ft | 345 kts | 194° |
| 2026-05-05 17:43 | 39.36183 | -75.35282 | 18114 ft | 350 kts | 194° |
| 2026-05-05 17:43 | 39.33754 | -75.35721 | 18687 ft | 355 kts | 193° |
| 2026-05-05 17:43 | 39.31311 | -75.36161 | 19257 ft | 359 kts | 193° |
| 2026-05-05 17:43 | 39.28839 | -75.36607 | 19798 ft | 362 kts | 193° |
| 2026-05-05 17:44 | 39.26331 | -75.37058 | 20327 ft | 366 kts | 193° |
| 2026-05-05 17:44 | 39.23797 | -75.37511 | 20846 ft | 370 kts | 192° |
| 2026-05-05 17:44 | 39.21243 | -75.37970 | 21389 ft | 374 kts | 192° |
| 2026-05-05 17:44 | 39.18650 | -75.38436 | 21898 ft | 377 kts | 192° |
| 2026-05-05 17:45 | 39.16032 | -75.38905 | 22395 ft | 381 kts | 192° |
| 2026-05-05 17:45 | 39.13412 | -75.39373 | 22916 ft | 384 kts | 192° |
| 2026-05-05 17:45 | 39.10766 | -75.39845 | 23425 ft | 387 kts | 191° |
| 2026-05-05 17:45 | 39.08107 | -75.40317 | 23916 ft | 390 kts | 192° |
| 2026-05-05 17:46 | 39.05379 | -75.40800 | 24375 ft | 394 kts | 192° |
| 2026-05-05 17:46 | 39.02663 | -75.41283 | 24821 ft | 397 kts | 192° |
| 2026-05-05 17:46 | 38.99907 | -75.41773 | 25250 ft | 401 kts | 192° |
| 2026-05-05 17:46 | 38.97168 | -75.42261 | 25654 ft | 404 kts | 192° |
| 2026-05-05 17:47 | 38.94372 | -75.42757 | 26061 ft | 408 kts | 192° |
| 2026-05-05 17:47 | 38.91531 | -75.43261 | 26466 ft | 411 kts | 192° |
| 2026-05-05 17:47 | 38.88694 | -75.43761 | 26875 ft | 413 kts | 192° |
| 2026-05-05 17:47 | 38.85852 | -75.44265 | 27265 ft | 416 kts | 192° |
| 2026-05-05 17:48 | 38.82966 | -75.44776 | 27627 ft | 419 kts | 192° |
| 2026-05-05 17:48 | 38.80085 | -75.45284 | 27975 ft | 422 kts | 192° |
| 2026-05-05 17:48 | 38.77177 | -75.45798 | 28314 ft | 425 kts | 192° |
| 2026-05-05 17:48 | 38.74260 | -75.46313 | 28655 ft | 427 kts | 192° |
| 2026-05-05 17:49 | 38.71279 | -75.46839 | 28990 ft | 430 kts | 192° |
| 2026-05-05 17:49 | 38.68320 | -75.47361 | 29302 ft | 433 kts | 192° |
| 2026-05-05 17:49 | 38.65337 | -75.47887 | 29600 ft | 436 kts | 192° |
| 2026-05-05 17:49 | 38.62329 | -75.48416 | 29894 ft | 439 kts | 192° |
| 2026-05-05 17:50 | 38.59281 | -75.48952 | 30203 ft | 441 kts | 192° |
| 2026-05-05 17:50 | 38.56263 | -75.49480 | 30515 ft | 444 kts | 192° |
| 2026-05-05 17:50 | 38.53193 | -75.50021 | 30793 ft | 446 kts | 192° |
| 2026-05-05 17:50 | 38.50095 | -75.50562 | 31064 ft | 449 kts | 192° |
| 2026-05-05 17:51 | 38.46998 | -75.51103 | 31355 ft | 451 kts | 192° |
| 2026-05-05 17:51 | 38.43873 | -75.51650 | 31617 ft | 453 kts | 192° |
| 2026-05-05 17:51 | 38.40789 | -75.52272 | 31857 ft | 454 kts | 195° |
| 2026-05-05 17:51 | 38.37685 | -75.53205 | 32128 ft | 453 kts | 200° |
| 2026-05-05 17:52 | 38.34699 | -75.54434 | 32448 ft | 451 kts | 205° |
| 2026-05-05 17:52 | 38.31856 | -75.55936 | 32785 ft | 447 kts | 210° |
| 2026-05-05 17:52 | 38.29078 | -75.57743 | 33115 ft | 444 kts | 215° |
| 2026-05-05 17:52 | 38.26481 | -75.59781 | 33417 ft | 441 kts | 219° |
| 2026-05-05 17:53 | 38.23956 | -75.61976 | 33698 ft | 441 kts | 220° |
| 2026-05-05 17:53 | 38.21439 | -75.64189 | 33971 ft | 441 kts | 220° |
| 2026-05-05 17:53 | 38.18903 | -75.66418 | 34264 ft | 440 kts | 219° |
| 2026-05-05 17:53 | 38.16411 | -75.68599 | 34531 ft | 440 kts | 219° |
| 2026-05-05 17:54 | 38.13888 | -75.70798 | 34780 ft | 440 kts | 219° |
| 2026-05-05 17:54 | 38.11360 | -75.72997 | 35034 ft | 439 kts | 219° |
| 2026-05-05 17:54 | 38.08846 | -75.75176 | 35286 ft | 438 kts | 219° |
| 2026-05-05 17:54 | 38.06336 | -75.77352 | 35523 ft | 437 kts | 219° |
| 2026-05-05 17:55 | 38.03847 | -75.79505 | 35775 ft | 435 kts | 219° |
| 2026-05-05 17:55 | 38.01365 | -75.81652 | 36007 ft | 434 kts | 219° |
| 2026-05-05 17:55 | 37.98877 | -75.83803 | 36225 ft | 433 kts | 219° |
| 2026-05-05 17:55 | 37.96378 | -75.85963 | 36451 ft | 432 kts | 219° |
| 2026-05-05 17:56 | 37.93918 | -75.88086 | 36692 ft | 431 kts | 219° |
| 2026-05-05 17:56 | 37.91450 | -75.90213 | 36923 ft | 430 kts | 219° |
| 2026-05-05 17:56 | 37.88968 | -75.92351 | 37165 ft | 430 kts | 219° |
| 2026-05-05 17:56 | 37.86524 | -75.94453 | 37394 ft | 429 kts | 219° |
| 2026-05-05 17:57 | 37.84046 | -75.96583 | 37582 ft | 428 kts | 219° |
| 2026-05-05 17:57 | 37.81605 | -75.98682 | 37773 ft | 428 kts | 219° |
| 2026-05-05 17:57 | 37.79129 | -76.00809 | 37930 ft | 428 kts | 219° |
| 2026-05-05 17:58 | 37.74220 | -76.05016 | 37981 ft | 432 kts | 219° |
| 2026-05-05 17:58 | 37.69256 | -76.09268 | 37982 ft | 432 kts | 219° |
| 2026-05-05 17:59 | 37.64264 | -76.13528 | 37985 ft | 432 kts | 219° |
| 2026-05-05 17:59 | 37.59318 | -76.17754 | 37993 ft | 433 kts | 220° |
| 2026-05-05 18:00 | 37.54327 | -76.22019 | 37987 ft | 434 kts | 220° |
| 2026-05-05 18:00 | 37.49358 | -76.26260 | 37986 ft | 433 kts | 220° |
| 2026-05-05 18:01 | 37.44351 | -76.30532 | 37981 ft | 433 kts | 220° |
| 2026-05-05 18:01 | 37.39366 | -76.34769 | 37990 ft | 433 kts | 220° |
| 2026-05-05 18:02 | 37.34378 | -76.39007 | 37995 ft | 434 kts | 220° |
| 2026-05-05 18:02 | 37.29402 | -76.43225 | 38005 ft | 435 kts | 220° |
| 2026-05-05 18:03 | 37.24374 | -76.47482 | 38015 ft | 434 kts | 220° |
| 2026-05-05 18:03 | 37.19408 | -76.51681 | 38023 ft | 433 kts | 221° |
| 2026-05-05 18:04 | 37.14406 | -76.55904 | 38027 ft | 434 kts | 220° |
| 2026-05-05 18:04 | 37.09412 | -76.60111 | 37969 ft | 433 kts | 221° |
| 2026-05-05 18:05 | 37.04429 | -76.64303 | 38206 ft | 434 kts | 221° |
| 2026-05-05 18:05 | 37.01916 | -76.66412 | 38084 ft | 433 kts | 220° |
| 2026-05-05 18:05 | 36.99422 | -76.68507 | 38056 ft | 434 kts | 220° |
| 2026-05-05 18:06 | 36.94382 | -76.72732 | 38039 ft | 434 kts | 220° |
| 2026-05-05 18:06 | 36.89382 | -76.76920 | 38028 ft | 435 kts | 220° |
| 2026-05-05 18:07 | 36.84344 | -76.81127 | 38020 ft | 435 kts | 221° |
| 2026-05-05 18:07 | 36.79294 | -76.85345 | 38014 ft | 437 kts | 221° |
| 2026-05-05 18:08 | 36.74247 | -76.89549 | 38016 ft | 437 kts | 221° |
| 2026-05-05 18:08 | 36.69228 | -76.93725 | 38023 ft | 437 kts | 221° |
| 2026-05-05 18:09 | 36.64187 | -76.97912 | 38016 ft | 438 kts | 221° |
| 2026-05-05 18:09 | 36.59092 | -77.02136 | 38017 ft | 439 kts | 221° |
| 2026-05-05 18:09 | 36.56546 | -77.04244 | 37898 ft | 439 kts | 221° |
| 2026-05-05 18:10 | 36.54004 | -77.06349 | 37989 ft | 440 kts | 221° |
| 2026-05-05 18:10 | 36.48909 | -77.10559 | 37931 ft | 439 kts | 221° |
| 2026-05-05 18:11 | 36.43858 | -77.14728 | 38019 ft | 440 kts | 221° |
| 2026-05-05 18:11 | 36.38742 | -77.18944 | 38017 ft | 441 kts | 221° |
| 2026-05-05 18:12 | 36.33641 | -77.23140 | 38028 ft | 443 kts | 221° |
| 2026-05-05 18:12 | 36.28689 | -77.27600 | 38030 ft | 439 kts | 226° |
| 2026-05-05 18:13 | 36.23919 | -77.32253 | 38033 ft | 437 kts | 226° |
| 2026-05-05 18:13 | 36.19138 | -77.36911 | 38014 ft | 437 kts | 226° |
| 2026-05-05 18:14 | 36.14360 | -77.41555 | 38024 ft | 439 kts | 227° |
| 2026-05-05 18:14 | 36.11958 | -77.43889 | 38223 ft | 439 kts | 226° |
| 2026-05-05 18:14 | 36.09579 | -77.46197 | 38207 ft | 439 kts | 227° |
| 2026-05-05 18:14 | 36.07159 | -77.48541 | 37963 ft | 439 kts | 227° |
| 2026-05-05 18:15 | 36.04777 | -77.50848 | 38009 ft | 439 kts | 226° |
| 2026-05-05 18:15 | 36.02361 | -77.53185 | 38210 ft | 440 kts | 227° |
| 2026-05-05 18:15 | 35.99946 | -77.55517 | 38093 ft | 440 kts | 227° |
| 2026-05-05 18:16 | 35.95145 | -77.60149 | 38043 ft | 438 kts | 227° |
| 2026-05-05 18:16 | 35.90367 | -77.64756 | 38041 ft | 439 kts | 227° |
| 2026-05-05 18:17 | 35.85541 | -77.69403 | 38033 ft | 441 kts | 226° |
| 2026-05-05 18:17 | 35.80698 | -77.74056 | 38032 ft | 441 kts | 226° |
| 2026-05-05 18:18 | 35.75871 | -77.78684 | 38040 ft | 442 kts | 226° |
| 2026-05-05 18:18 | 35.71023 | -77.83332 | 38023 ft | 443 kts | 226° |
| 2026-05-05 18:19 | 35.66146 | -77.87994 | 38029 ft | 444 kts | 226° |
| 2026-05-05 18:19 | 35.61302 | -77.92615 | 38038 ft | 442 kts | 227° |
| 2026-05-05 18:20 | 35.56438 | -77.97252 | 38042 ft | 443 kts | 226° |
| 2026-05-05 18:20 | 35.51588 | -78.01867 | 38044 ft | 443 kts | 226° |
| 2026-05-05 18:21 | 35.46764 | -78.06454 | 38052 ft | 442 kts | 227° |
| 2026-05-05 18:21 | 35.41908 | -78.11061 | 38052 ft | 442 kts | 227° |
| 2026-05-05 18:22 | 35.37046 | -78.15667 | 38050 ft | 442 kts | 227° |
| 2026-05-05 18:22 | 35.32185 | -78.20263 | 38042 ft | 441 kts | 227° |
| 2026-05-05 18:23 | 35.27351 | -78.24829 | 38045 ft | 442 kts | 227° |
| 2026-05-05 18:23 | 35.22472 | -78.29431 | 38026 ft | 442 kts | 227° |
| 2026-05-05 18:24 | 35.17601 | -78.34013 | 38034 ft | 440 kts | 227° |
| 2026-05-05 18:24 | 35.12773 | -78.38553 | 38025 ft | 441 kts | 227° |
| 2026-05-05 18:25 | 35.07892 | -78.43135 | 38042 ft | 441 kts | 227° |
| 2026-05-05 18:25 | 35.03027 | -78.47693 | 38042 ft | 443 kts | 227° |
| 2026-05-05 18:26 | 34.98179 | -78.52231 | 38049 ft | 441 kts | 227° |
| 2026-05-05 18:26 | 34.93304 | -78.56780 | 38052 ft | 439 kts | 227° |
| 2026-05-05 18:27 | 34.88481 | -78.61281 | 38039 ft | 439 kts | 227° |
| 2026-05-05 18:27 | 34.83613 | -78.65816 | 38050 ft | 439 kts | 227° |
| 2026-05-05 18:28 | 34.76334 | -78.72581 | 38054 ft | 439 kts | 227° |
| 2026-05-05 18:28 | 34.71503 | -78.77065 | 38052 ft | 439 kts | 227° |
| 2026-05-05 18:29 | 34.66671 | -78.81544 | 38053 ft | 440 kts | 227° |
| 2026-05-05 18:29 | 34.61803 | -78.86047 | 38053 ft | 440 kts | 227° |
| 2026-05-05 18:30 | 34.56909 | -78.90569 | 38057 ft | 441 kts | 227° |
| 2026-05-05 18:30 | 34.52079 | -78.95018 | 38058 ft | 437 kts | 227° |
| 2026-05-05 18:31 | 34.47228 | -78.99481 | 38058 ft | 440 kts | 227° |
| 2026-05-05 18:31 | 34.42341 | -79.03941 | 38057 ft | 441 kts | 226° |
| 2026-05-05 18:32 | 34.37310 | -79.08247 | 38049 ft | 442 kts | 225° |
| 2026-05-05 18:32 | 34.32314 | -79.12495 | 38054 ft | 442 kts | 226° |
| 2026-05-05 18:33 | 34.27302 | -79.16782 | 38051 ft | 441 kts | 226° |
| 2026-05-05 18:33 | 34.22538 | -79.21300 | 38055 ft | 434 kts | 230° |
| 2026-05-05 18:34 | 34.17846 | -79.25938 | 38066 ft | 436 kts | 230° |
| 2026-05-05 18:34 | 34.13150 | -79.30568 | 38055 ft | 435 kts | 230° |
| 2026-05-05 18:35 | 34.08477 | -79.35159 | 38057 ft | 433 kts | 230° |
| 2026-05-05 18:35 | 34.03820 | -79.39732 | 38054 ft | 435 kts | 231° |
| 2026-05-05 18:36 | 33.99132 | -79.44325 | 38051 ft | 433 kts | 231° |
| 2026-05-05 18:36 | 33.94464 | -79.48895 | 38051 ft | 434 kts | 231° |
| 2026-05-05 18:37 | 33.89774 | -79.53479 | 38053 ft | 434 kts | 231° |
| 2026-05-05 18:37 | 33.84998 | -79.57861 | 38049 ft | 440 kts | 226° |
| 2026-05-05 18:38 | 33.79940 | -79.61959 | 37875 ft | 442 kts | 226° |
| 2026-05-05 18:38 | 33.77377 | -79.64026 | 37572 ft | 440 kts | 226° |
| 2026-05-05 18:38 | 33.74832 | -79.66077 | 37284 ft | 439 kts | 225° |
| 2026-05-05 18:39 | 33.72321 | -79.68106 | 36993 ft | 440 kts | 225° |
| 2026-05-05 18:39 | 33.69775 | -79.70161 | 36715 ft | 442 kts | 225° |
| 2026-05-05 18:39 | 33.67245 | -79.72201 | 36432 ft | 442 kts | 225° |
| 2026-05-05 18:39 | 33.64677 | -79.74270 | 36141 ft | 441 kts | 226° |
| 2026-05-05 18:40 | 33.62142 | -79.76312 | 35863 ft | 442 kts | 225° |
| 2026-05-05 18:40 | 33.59570 | -79.78387 | 35584 ft | 444 kts | 225° |
| 2026-05-05 18:40 | 33.57026 | -79.80435 | 35302 ft | 446 kts | 225° |
| 2026-05-05 18:40 | 33.54431 | -79.82519 | 35022 ft | 446 kts | 225° |
| 2026-05-05 18:41 | 33.51866 | -79.84579 | 34727 ft | 449 kts | 225° |
| 2026-05-05 18:41 | 33.49264 | -79.86668 | 34441 ft | 450 kts | 225° |
| 2026-05-05 18:41 | 33.46659 | -79.88757 | 34173 ft | 450 kts | 225° |
| 2026-05-05 18:41 | 33.44062 | -79.90836 | 33893 ft | 450 kts | 225° |
| 2026-05-05 18:42 | 33.41480 | -79.92902 | 33611 ft | 450 kts | 225° |
| 2026-05-05 18:42 | 33.38893 | -79.94972 | 33338 ft | 451 kts | 225° |
| 2026-05-05 18:42 | 33.36280 | -79.97062 | 33078 ft | 450 kts | 225° |
| 2026-05-05 18:42 | 33.33681 | -79.99139 | 32821 ft | 450 kts | 224° |
| 2026-05-05 18:43 | 33.31087 | -80.01213 | 32559 ft | 452 kts | 224° |
| 2026-05-05 18:43 | 33.28487 | -80.03286 | 32312 ft | 449 kts | 224° |
| 2026-05-05 18:43 | 33.25867 | -80.05373 | 32057 ft | 450 kts | 224° |
| 2026-05-05 18:43 | 33.23268 | -80.07446 | 31787 ft | 451 kts | 224° |
| 2026-05-05 18:44 | 33.20641 | -80.09536 | 31532 ft | 451 kts | 224° |
| 2026-05-05 18:44 | 33.18038 | -80.11605 | 31282 ft | 449 kts | 224° |
| 2026-05-05 18:44 | 33.15481 | -80.13636 | 31037 ft | 447 kts | 223° |
| 2026-05-05 18:44 | 33.12879 | -80.15699 | 30779 ft | 445 kts | 223° |
| 2026-05-05 18:45 | 33.10305 | -80.17744 | 30523 ft | 443 kts | 223° |
| 2026-05-05 18:45 | 33.07765 | -80.19756 | 30275 ft | 441 kts | 223° |
| 2026-05-05 18:45 | 33.05188 | -80.21801 | 30025 ft | 440 kts | 223° |
| 2026-05-05 18:45 | 33.02666 | -80.23798 | 29775 ft | 439 kts | 223° |
| 2026-05-05 18:46 | 33.00121 | -80.25813 | 29520 ft | 437 kts | 222° |
| 2026-05-05 18:46 | 32.97586 | -80.27816 | 29261 ft | 435 kts | 223° |
| 2026-05-05 18:46 | 32.95084 | -80.29791 | 29002 ft | 432 kts | 223° |
| 2026-05-05 18:46 | 32.92593 | -80.31758 | 28740 ft | 430 kts | 222° |
| 2026-05-05 18:47 | 32.90112 | -80.33718 | 28486 ft | 429 kts | 222° |
| 2026-05-05 18:47 | 32.87606 | -80.35696 | 28221 ft | 427 kts | 222° |
| 2026-05-05 18:47 | 32.85141 | -80.37638 | 27971 ft | 425 kts | 222° |
| 2026-05-05 18:47 | 32.82684 | -80.39573 | 27717 ft | 423 kts | 222° |
| 2026-05-05 18:48 | 32.80242 | -80.41496 | 27451 ft | 419 kts | 221° |
| 2026-05-05 18:48 | 32.77817 | -80.43401 | 27196 ft | 418 kts | 221° |
| 2026-05-05 18:48 | 32.75418 | -80.45287 | 26945 ft | 417 kts | 221° |
| 2026-05-05 18:48 | 32.73009 | -80.47179 | 26684 ft | 414 kts | 221° |
| 2026-05-05 18:49 | 32.70623 | -80.49054 | 26429 ft | 412 kts | 221° |
| 2026-05-05 18:49 | 32.68225 | -80.50933 | 26173 ft | 410 kts | 221° |
| 2026-05-05 18:49 | 32.65852 | -80.52794 | 25919 ft | 408 kts | 221° |
| 2026-05-05 18:49 | 32.63507 | -80.54633 | 25672 ft | 407 kts | 221° |
| 2026-05-05 18:50 | 32.61155 | -80.56476 | 25420 ft | 405 kts | 221° |
| 2026-05-05 18:50 | 32.58792 | -80.58325 | 25160 ft | 403 kts | 220° |
| 2026-05-05 18:50 | 32.56458 | -80.60150 | 24901 ft | 401 kts | 220° |
| 2026-05-05 18:50 | 32.54145 | -80.61957 | 24648 ft | 400 kts | 220° |
| 2026-05-05 18:51 | 32.51846 | -80.63753 | 24399 ft | 398 kts | 220° |
| 2026-05-05 18:51 | 32.49541 | -80.65551 | 24153 ft | 396 kts | 220° |
| 2026-05-05 18:51 | 32.47225 | -80.67358 | 24083 ft | 396 kts | 220° |
| 2026-05-05 18:51 | 32.44939 | -80.69141 | 24075 ft | 396 kts | 220° |
| 2026-05-05 18:52 | 32.42641 | -80.70931 | 24072 ft | 396 kts | 219° |
| 2026-05-05 18:52 | 32.40333 | -80.72728 | 24074 ft | 396 kts | 220° |
| 2026-05-05 18:52 | 32.38023 | -80.74527 | 24071 ft | 396 kts | 220° |
| 2026-05-05 18:52 | 32.35739 | -80.76302 | 24076 ft | 396 kts | 220° |
| 2026-05-05 18:53 | 32.33432 | -80.78095 | 24075 ft | 396 kts | 220° |
| 2026-05-05 18:53 | 32.31159 | -80.79861 | 24075 ft | 396 kts | 220° |
| 2026-05-05 18:53 | 32.28855 | -80.81650 | 24077 ft | 396 kts | 220° |
| 2026-05-05 18:53 | 32.26534 | -80.83449 | 24073 ft | 397 kts | 220° |
| 2026-05-05 18:54 | 32.24221 | -80.85243 | 24076 ft | 397 kts | 220° |
| 2026-05-05 18:54 | 32.21933 | -80.87015 | 24076 ft | 397 kts | 220° |
| 2026-05-05 18:54 | 32.19597 | -80.88826 | 24078 ft | 397 kts | 220° |
| 2026-05-05 18:54 | 32.17244 | -80.90488 | 24070 ft | 401 kts | 214° |
| 2026-05-05 18:55 | 32.14674 | -80.91910 | 24072 ft | 406 kts | 208° |
| 2026-05-05 18:55 | 32.12007 | -80.92996 | 24070 ft | 411 kts | 202° |
| 2026-05-05 18:55 | 32.09261 | -80.93881 | 24069 ft | 412 kts | 201° |
| 2026-05-05 18:55 | 32.06469 | -80.94733 | 24067 ft | 412 kts | 201° |
| 2026-05-05 18:56 | 32.03733 | -80.95567 | 24070 ft | 414 kts | 201° |
| 2026-05-05 18:56 | 32.00955 | -80.96422 | 24068 ft | 414 kts | 201° |
| 2026-05-05 18:56 | 31.98169 | -80.97282 | 24068 ft | 414 kts | 201° |
| 2026-05-05 18:56 | 31.95357 | -80.98156 | 24066 ft | 414 kts | 201° |
| 2026-05-05 18:57 | 31.92590 | -80.99018 | 24060 ft | 414 kts | 201° |
| 2026-05-05 18:57 | 31.89821 | -80.99880 | 24065 ft | 414 kts | 201° |
| 2026-05-05 18:57 | 31.87026 | -81.00751 | 24070 ft | 413 kts | 201° |
| 2026-05-05 18:57 | 31.84261 | -81.01624 | 24069 ft | 412 kts | 201° |
| 2026-05-05 18:58 | 31.81475 | -81.02511 | 24060 ft | 412 kts | 201° |
| 2026-05-05 18:58 | 31.78709 | -81.03393 | 24063 ft | 413 kts | 201° |
| 2026-05-05 18:58 | 31.75919 | -81.04281 | 24064 ft | 412 kts | 202° |
| 2026-05-05 18:58 | 31.73178 | -81.05153 | 24063 ft | 412 kts | 202° |
| 2026-05-05 18:59 | 31.70412 | -81.06033 | 23943 ft | 415 kts | 202° |
| 2026-05-05 18:59 | 31.67606 | -81.06925 | 23317 ft | 420 kts | 201° |
| 2026-05-05 18:59 | 31.64783 | -81.07824 | 22754 ft | 418 kts | 201° |
| 2026-05-05 18:59 | 31.61992 | -81.08707 | 22283 ft | 415 kts | 201° |
| 2026-05-05 19:00 | 31.59206 | -81.09589 | 21805 ft | 412 kts | 201° |
| 2026-05-05 19:00 | 31.56459 | -81.10457 | 21360 ft | 408 kts | 201° |
| 2026-05-05 19:00 | 31.53725 | -81.11321 | 20906 ft | 404 kts | 201° |
| 2026-05-05 19:00 | 31.51043 | -81.12169 | 20472 ft | 400 kts | 200° |
| 2026-05-05 19:01 | 31.48360 | -81.13017 | 20018 ft | 397 kts | 200° |
| 2026-05-05 19:01 | 31.45723 | -81.13849 | 19559 ft | 393 kts | 200° |
| 2026-05-05 19:01 | 31.43066 | -81.14689 | 19111 ft | 390 kts | 200° |
| 2026-05-05 19:01 | 31.40496 | -81.15500 | 18673 ft | 387 kts | 200° |
| 2026-05-05 19:02 | 31.37885 | -81.16321 | 18213 ft | 383 kts | 200° |
| 2026-05-05 19:02 | 31.35323 | -81.17128 | 17787 ft | 380 kts | 199° |
| 2026-05-05 19:02 | 31.32777 | -81.17930 | 17345 ft | 377 kts | 199° |
| 2026-05-05 19:02 | 31.30279 | -81.18714 | 16911 ft | 374 kts | 199° |
| 2026-05-05 19:03 | 31.27756 | -81.19507 | 16445 ft | 370 kts | 199° |
| 2026-05-05 19:03 | 31.25284 | -81.20283 | 16018 ft | 367 kts | 199° |
| 2026-05-05 19:03 | 31.22839 | -81.21033 | 15566 ft | 365 kts | 197° |
| 2026-05-05 19:03 | 31.20352 | -81.21622 | 15141 ft | 363 kts | 194° |
| 2026-05-05 19:04 | 31.17877 | -81.22144 | 14693 ft | 360 kts | 193° |
| 2026-05-05 19:04 | 31.15443 | -81.22646 | 14283 ft | 357 kts | 193° |
| 2026-05-05 19:04 | 31.12979 | -81.23152 | 13833 ft | 354 kts | 193° |
| 2026-05-05 19:04 | 31.10571 | -81.23650 | 13409 ft | 351 kts | 193° |
| 2026-05-05 19:05 | 31.08166 | -81.24147 | 12977 ft | 348 kts | 193° |
| 2026-05-05 19:05 | 31.05795 | -81.24638 | 12550 ft | 346 kts | 193° |
| 2026-05-05 19:05 | 31.03450 | -81.25125 | 12139 ft | 343 kts | 193° |
| 2026-05-05 19:05 | 31.01115 | -81.25610 | 11728 ft | 341 kts | 193° |
| 2026-05-05 19:06 | 30.98789 | -81.26092 | 11303 ft | 338 kts | 192° |
| 2026-05-05 19:06 | 30.96474 | -81.26571 | 10879 ft | 336 kts | 192° |
| 2026-05-05 19:06 | 30.94178 | -81.27045 | 10488 ft | 331 kts | 192° |
| 2026-05-05 19:06 | 30.91943 | -81.27506 | 10170 ft | 324 kts | 192° |
| 2026-05-05 19:07 | 30.89744 | -81.27960 | 9969 ft | 314 kts | 192° |
| 2026-05-05 19:07 | 30.87649 | -81.28390 | 9955 ft | 297 kts | 193° |
| 2026-05-05 19:07 | 30.85650 | -81.28802 | 9948 ft | 290 kts | 193° |
| 2026-05-05 19:07 | 30.83641 | -81.29219 | 9875 ft | 291 kts | 193° |
| 2026-05-05 19:08 | 30.81730 | -81.29868 | 9638 ft | 285 kts | 209° |
| 2026-05-05 19:08 | 30.80127 | -81.31187 | 9398 ft | 281 kts | 228° |
| 2026-05-05 19:08 | 30.78989 | -81.33012 | 9136 ft | 278 kts | 245° |
| 2026-05-05 19:08 | 30.78362 | -81.35128 | 8885 ft | 276 kts | 256° |
| 2026-05-05 19:09 | 30.77789 | -81.37236 | 8633 ft | 275 kts | 247° |
| 2026-05-05 19:09 | 30.76824 | -81.39134 | 8403 ft | 275 kts | 236° |
| 2026-05-05 19:09 | 30.75700 | -81.40946 | 8151 ft | 275 kts | 235° |
| 2026-05-05 19:09 | 30.74584 | -81.42719 | 7888 ft | 274 kts | 238° |
| 2026-05-05 19:10 | 30.73841 | -81.44737 | 7632 ft | 272 kts | 255° |
| 2026-05-05 19:10 | 30.73384 | -81.46854 | 7395 ft | 271 kts | 257° |
| 2026-05-05 19:10 | 30.72979 | -81.48991 | 7146 ft | 271 kts | 258° |
| 2026-05-05 19:10 | 30.72584 | -81.51142 | 6895 ft | 271 kts | 258° |
| 2026-05-05 19:11 | 30.72200 | -81.53263 | 6654 ft | 271 kts | 258° |
| 2026-05-05 19:11 | 30.71816 | -81.55407 | 6415 ft | 271 kts | 258° |
| 2026-05-05 19:11 | 30.71440 | -81.57533 | 6173 ft | 270 kts | 258° |
| 2026-05-05 19:11 | 30.71068 | -81.59676 | 5926 ft | 269 kts | 258° |
| 2026-05-05 19:12 | 30.70702 | -81.61802 | 5678 ft | 270 kts | 258° |
| 2026-05-05 19:12 | 30.70334 | -81.63933 | 5437 ft | 269 kts | 258° |
| 2026-05-05 19:12 | 30.69962 | -81.66074 | 5191 ft | 268 kts | 258° |
| 2026-05-05 19:12 | 30.69596 | -81.68192 | 4947 ft | 267 kts | 258° |
| 2026-05-05 19:13 | 30.69236 | -81.70277 | 4569 ft | 266 kts | 258° |
| 2026-05-05 19:13 | 30.68871 | -81.72405 | 4136 ft | 267 kts | 258° |
| 2026-05-05 19:13 | 30.68524 | -81.74477 | 3899 ft | 260 kts | 258° |
| 2026-05-05 19:13 | 30.68186 | -81.76505 | 3722 ft | 251 kts | 258° |
| 2026-05-05 19:14 | 30.67865 | -81.78455 | 3563 ft | 242 kts | 258° |
| 2026-05-05 19:14 | 30.67553 | -81.80338 | 3399 ft | 234 kts | 258° |
| 2026-05-05 19:14 | 30.67245 | -81.82175 | 3241 ft | 225 kts | 258° |
| 2026-05-05 19:14 | 30.66956 | -81.83907 | 3091 ft | 217 kts | 258° |
| 2026-05-05 19:15 | 30.66675 | -81.85598 | 2902 ft | 211 kts | 258° |
| 2026-05-05 19:15 | 30.66398 | -81.87281 | 2624 ft | 210 kts | 258° |
| 2026-05-05 19:15 | 30.66128 | -81.88942 | 2326 ft | 210 kts | 258° |
| 2026-05-05 19:15 | 30.65862 | -81.90596 | 2039 ft | 210 kts | 258° |
| 2026-05-05 19:16 | 30.65601 | -81.92243 | 1928 ft | 210 kts | 258° |
| 2026-05-05 19:16 | 30.65337 | -81.93915 | 1921 ft | 210 kts | 256° |
| 2026-05-05 19:16 | 30.64759 | -81.95447 | 1937 ft | 205 kts | 226° |
| 2026-05-05 19:16 | 30.63586 | -81.96259 | 1954 ft | 197 kts | 190° |
| 2026-05-05 19:17 | 30.62243 | -81.96178 | 1939 ft | 194 kts | 167° |
| 2026-05-05 19:17 | 30.60920 | -81.95808 | 1922 ft | 194 kts | 163° |
| 2026-05-05 19:17 | 30.59614 | -81.95400 | 1917 ft | 195 kts | 163° |
| 2026-05-05 19:17 | 30.58310 | -81.94988 | 1912 ft | 195 kts | 163° |
| 2026-05-05 19:18 | 30.56988 | -81.94571 | 1915 ft | 195 kts | 163° |
| 2026-05-05 19:18 | 30.55667 | -81.94155 | 1916 ft | 195 kts | 163° |
| 2026-05-05 19:18 | 30.54360 | -81.93741 | 1921 ft | 195 kts | 163° |
| 2026-05-05 19:18 | 30.53047 | -81.93325 | 1922 ft | 194 kts | 163° |
| 2026-05-05 19:19 | 30.51751 | -81.92918 | 1921 ft | 195 kts | 163° |
| 2026-05-05 19:19 | 30.50476 | -81.92518 | 1919 ft | 176 kts | 163° |
| 2026-05-05 19:19 | 30.49377 | -81.92176 | 1902 ft | 155 kts | 163° |
| 2026-05-05 19:19 | 30.48356 | -81.91814 | 1908 ft | 152 kts | 150° |
| 2026-05-05 19:20 | 30.47691 | -81.90907 | 1920 ft | 150 kts | 112° |
| 2026-05-05 19:20 | 30.47391 | -81.89769 | 1935 ft | 142 kts | 104° |
| 2026-05-05 19:20 | 30.47167 | -81.88680 | 1921 ft | 136 kts | 103° |
| 2026-05-05 19:20 | 30.46955 | -81.87612 | 1928 ft | 135 kts | 103° |
| 2026-05-05 19:21 | 30.46745 | -81.86559 | 1931 ft | 135 kts | 103° |
| 2026-05-05 19:21 | 30.46533 | -81.85502 | 1933 ft | 135 kts | 103° |
| 2026-05-05 19:21 | 30.46320 | -81.84434 | 1931 ft | 136 kts | 103° |
| 2026-05-05 19:21 | 30.46110 | -81.83377 | 1930 ft | 136 kts | 101° |
| 2026-05-05 19:22 | 30.46103 | -81.82274 | 1930 ft | 137 kts | 83° |
| 2026-05-05 19:22 | 30.46295 | -81.81200 | 1910 ft | 138 kts | 76° |
| 2026-05-05 19:22 | 30.46559 | -81.80127 | 1751 ft | 137 kts | 74° |
| 2026-05-05 19:22 | 30.46854 | -81.79082 | 1574 ft | 136 kts | 73° |
| 2026-05-05 19:23 | 30.47168 | -81.78036 | 1400 ft | 136 kts | 72° |
| 2026-05-05 19:23 | 30.47482 | -81.77009 | 1228 ft | 135 kts | 72° |
| 2026-05-05 19:23 | 30.47795 | -81.75987 | 1058 ft | 135 kts | 72° |
| 2026-05-05 19:23 | 30.48103 | -81.74979 | 889 ft | 133 kts | 72° |
| 2026-05-05 19:24 | 30.48411 | -81.73969 | 720 ft | 133 kts | 73° |
| 2026-05-05 19:24 | 30.48719 | -81.72959 | 548 ft | 132 kts | 72° |
| 2026-05-05 19:24 | 30.49038 | -81.71950 | 366 ft | 132 kts | 71° |
| 2026-05-05 19:24 | 30.49346 | -81.70944 | 221 ft | 132 kts | 74° |
| 2026-05-05 19:25 | 30.49641 | -81.69944 | 69 ft | 131 kts | 71° |
| 2026-05-05 19:25 | 30.49927 | -81.69005 | 25 ft | 103 kts | 71° |
| 2026-05-05 19:25 | 30.50107 | -81.68410 | 25 ft | 54 kts | 71° |
| 2026-05-05 19:25 | 30.50166 | -81.68124 | 25 ft | 14 kts | 86° |
| 2026-05-05 19:26 | 30.50127 | -81.68022 | 25 ft | 14 kts | 140° |
| 2026-05-05 19:26 | 30.50062 | -81.67985 | 25 ft | 5 kts | 188° |
| 2026-05-05 19:26 | 30.50050 | -81.68018 | 25 ft | 7 kts | 256° |
| 2026-05-05 19:26 | 30.50016 | -81.68135 | 25 ft | 22 kts | 248° |
| 2026-05-05 19:27 | 30.49956 | -81.68330 | 25 ft | 22 kts | 251° |
| 2026-05-05 19:27 | 30.49886 | -81.68441 | 25 ft | 16 kts | 195° |
| 2026-05-05 19:27 | 30.49761 | -81.68471 | 25 ft | 21 kts | 189° |
| 2026-05-05 19:27 | 30.49608 | -81.68504 | 25 ft | 22 kts | 190° |
| 2026-05-05 19:28 | 30.49482 | -81.68496 | 25 ft | 11 kts | 144° |
| 2026-05-05 19:28 | 30.49425 | -81.68456 | 25 ft | 6 kts | 157° |
| 2026-05-05 19:28 | 30.49404 | -81.68475 | 25 ft | 4 kts | 242° |
| 2026-05-05 19:28 | 30.49388 | -81.68504 | 25 ft | 3 kts | 240° |
| 2026-05-05 19:29 | 30.49385 | -81.68512 | 25 ft | 0 kts | 241° |